sensor_id;sensor_type;location;lat;lon;timestamp;P1;durP1;ratioP1;P2;durP2;ratioP2
67889;SDS011;54685;52.082;5.426;2022-11-04T00:00:48;4.32;;;2.83;;
67889;SDS011;54685;52.082;5.426;2022-11-04T00:03:15;8.52;;;3.00;;
67889;SDS011;54685;52.082;5.426;2022-11-04T00:05:42;5.47;;;2.58;;
67889;SDS011;54685;52.082;5.426;2022-11-04T00:08:09;5.38;;;2.30;;
67889;SDS011;54685;52.082;5.426;2022-11-04T00:10:57;7.03;;;2.83;;
67889;SDS011;54685;52.082;5.426;2022-11-04T00:13:44;6.22;;;2.33;;
67889;SDS011;54685;52.082;5.426;2022-11-04T00:16:12;4.93;;;2.20;;
67889;SDS011;54685;52.082;5.426;2022-11-04T00:19:00;7.30;;;2.10;;
67889;SDS011;54685;52.082;5.426;2022-11-04T00:21:27;11.35;;;2.38;;
67889;SDS011;54685;52.082;5.426;2022-11-04T00:24:13;8.27;;;1.80;;
67889;SDS011;54685;52.082;5.426;2022-11-04T00:27:16;4.85;;;1.95;;
67889;SDS011;54685;52.082;5.426;2022-11-04T00:30:03;4.85;;;1.75;;
67889;SDS011;54685;52.082;5.426;2022-11-04T00:32:33;7.35;;;2.08;;
67889;SDS011;54685;52.082;5.426;2022-11-04T00:35:19;6.30;;;1.50;;
67889;SDS011;54685;52.082;5.426;2022-11-04T00:37:46;4.05;;;2.10;;
67889;SDS011;54685;52.082;5.426;2022-11-04T00:40:13;7.00;;;2.35;;
67889;SDS011;54685;52.082;5.426;2022-11-04T00:42:43;10.63;;;3.72;;
67889;SDS011;54685;52.082;5.426;2022-11-04T00:45:11;9.27;;;4.18;;
67889;SDS011;54685;52.082;5.426;2022-11-04T00:47:38;6.25;;;4.13;;
67889;SDS011;54685;52.082;5.426;2022-11-04T00:50:05;5.57;;;3.72;;
67889;SDS011;54685;52.082;5.426;2022-11-04T00:52:32;5.78;;;4.10;;
67889;SDS011;54685;52.082;5.426;2022-11-04T00:54:58;4.07;;;2.95;;
67889;SDS011;54685;52.082;5.426;2022-11-04T00:57:25;3.72;;;2.45;;
67889;SDS011;54685;52.082;5.426;2022-11-04T00:59:53;3.28;;;2.83;;
67889;SDS011;54685;52.082;5.426;2022-11-04T01:02:20;5.93;;;2.90;;
67889;SDS011;54685;52.082;5.426;2022-11-04T01:04:47;6.18;;;2.92;;
67889;SDS011;54685;52.082;5.426;2022-11-04T01:07:14;3.60;;;2.72;;
67889;SDS011;54685;52.082;5.426;2022-11-04T01:09:41;4.28;;;2.42;;
67889;SDS011;54685;52.082;5.426;2022-11-04T01:12:07;3.97;;;2.60;;
67889;SDS011;54685;52.082;5.426;2022-11-04T01:14:34;5.18;;;2.35;;
67889;SDS011;54685;52.082;5.426;2022-11-04T01:17:01;2.55;;;1.88;;
67889;SDS011;54685;52.082;5.426;2022-11-04T01:19:29;10.35;;;2.47;;
67889;SDS011;54685;52.082;5.426;2022-11-04T01:21:56;2.85;;;1.70;;
67889;SDS011;54685;52.082;5.426;2022-11-04T01:24:22;3.65;;;2.60;;
67889;SDS011;54685;52.082;5.426;2022-11-04T01:26:49;3.70;;;1.45;;
67889;SDS011;54685;52.082;5.426;2022-11-04T01:29:16;2.22;;;1.10;;
67889;SDS011;54685;52.082;5.426;2022-11-04T01:31:43;2.78;;;1.40;;
67889;SDS011;54685;52.082;5.426;2022-11-04T01:34:10;3.72;;;1.58;;
67889;SDS011;54685;52.082;5.426;2022-11-04T01:36:36;5.35;;;1.08;;
67889;SDS011;54685;52.082;5.426;2022-11-04T01:39:03;4.78;;;1.42;;
67889;SDS011;54685;52.082;5.426;2022-11-04T01:41:31;2.15;;;1.40;;
67889;SDS011;54685;52.082;5.426;2022-11-04T01:46:28;4.82;;;1.40;;
67889;SDS011;54685;52.082;5.426;2022-11-04T01:49:18;4.43;;;1.42;;
67889;SDS011;54685;52.082;5.426;2022-11-04T01:51:56;6.45;;;1.30;;
67889;SDS011;54685;52.082;5.426;2022-11-04T01:54:32;3.15;;;1.05;;
67889;SDS011;54685;52.082;5.426;2022-11-04T01:57:00;5.32;;;0.90;;
67889;SDS011;54685;52.082;5.426;2022-11-04T01:59:31;3.58;;;0.98;;
67889;SDS011;54685;52.082;5.426;2022-11-04T02:02:00;5.78;;;1.38;;
67889;SDS011;54685;52.082;5.426;2022-11-04T02:04:28;1.85;;;1.48;;
67889;SDS011;54685;52.082;5.426;2022-11-04T02:06:57;10.00;;;1.98;;
67889;SDS011;54685;52.082;5.426;2022-11-04T02:09:32;3.08;;;1.50;;
67889;SDS011;54685;52.082;5.426;2022-11-04T02:12:01;4.28;;;1.98;;
67889;SDS011;54685;52.082;5.426;2022-11-04T02:14:47;2.42;;;1.80;;
67889;SDS011;54685;52.082;5.426;2022-11-04T02:30:41;3.13;;;2.45;;
67889;SDS011;54685;52.082;5.426;2022-11-04T02:33:21;4.13;;;2.75;;
67889;SDS011;54685;52.082;5.426;2022-11-04T02:36:19;5.10;;;2.35;;
67889;SDS011;54685;52.082;5.426;2022-11-04T02:39:07;4.95;;;2.17;;
67889;SDS011;54685;52.082;5.426;2022-11-04T02:41:48;2.90;;;1.77;;
67889;SDS011;54685;52.082;5.426;2022-11-04T02:44:28;4.05;;;1.90;;
67889;SDS011;54685;52.082;5.426;2022-11-04T02:47:14;6.18;;;1.85;;
67889;SDS011;54685;52.082;5.426;2022-11-04T02:49:51;4.70;;;1.52;;
67889;SDS011;54685;52.082;5.426;2022-11-04T02:52:26;5.90;;;1.83;;
67889;SDS011;54685;52.082;5.426;2022-11-04T02:55:02;4.38;;;1.85;;
67889;SDS011;54685;52.082;5.426;2022-11-04T02:57:36;3.70;;;1.60;;
67889;SDS011;54685;52.082;5.426;2022-11-04T03:00:07;2.00;;;1.50;;
67889;SDS011;54685;52.082;5.426;2022-11-04T03:05:19;2.40;;;1.33;;
67889;SDS011;54685;52.082;5.426;2022-11-04T03:11:05;4.20;;;1.50;;
67889;SDS011;54685;52.082;5.426;2022-11-04T03:13:14;2.90;;;1.50;;
67889;SDS011;54685;52.082;5.426;2022-11-04T03:15:47;2.58;;;1.67;;
67889;SDS011;54685;52.082;5.426;2022-11-04T03:18:32;2.85;;;1.73;;
67889;SDS011;54685;52.082;5.426;2022-11-04T03:21:04;4.15;;;1.55;;
67889;SDS011;54685;52.082;5.426;2022-11-04T03:23:35;5.40;;;1.88;;
67889;SDS011;54685;52.082;5.426;2022-11-04T03:26:14;1.55;;;1.38;;
67889;SDS011;54685;52.082;5.426;2022-11-04T03:29:03;4.07;;;1.63;;
67889;SDS011;54685;52.082;5.426;2022-11-04T03:32:11;3.28;;;1.70;;
67889;SDS011;54685;52.082;5.426;2022-11-04T03:37:15;3.08;;;2.05;;
67889;SDS011;54685;52.082;5.426;2022-11-04T03:39:42;6.65;;;2.20;;
67889;SDS011;54685;52.082;5.426;2022-11-04T03:42:09;4.15;;;2.30;;
67889;SDS011;54685;52.082;5.426;2022-11-04T03:44:47;4.05;;;2.30;;
67889;SDS011;54685;52.082;5.426;2022-11-04T03:47:15;2.80;;;2.55;;
67889;SDS011;54685;52.082;5.426;2022-11-04T03:49:46;4.80;;;2.75;;
67889;SDS011;54685;52.082;5.426;2022-11-04T03:52:13;5.13;;;3.63;;
67889;SDS011;54685;52.082;5.426;2022-11-04T03:54:43;6.53;;;3.45;;
67889;SDS011;54685;52.082;5.426;2022-11-04T03:57:19;15.52;;;4.10;;
67889;SDS011;54685;52.082;5.426;2022-11-04T04:02:51;7.70;;;4.90;;
67889;SDS011;54685;52.082;5.426;2022-11-04T04:05:32;5.20;;;4.38;;
67889;SDS011;54685;52.082;5.426;2022-11-04T04:08:09;6.38;;;4.60;;
67889;SDS011;54685;52.082;5.426;2022-11-04T04:13:41;10.45;;;6.80;;
67889;SDS011;54685;52.082;5.426;2022-11-04T04:16:27;11.93;;;7.82;;
67889;SDS011;54685;52.082;5.426;2022-11-04T04:21:41;14.07;;;8.93;;
67889;SDS011;54685;52.082;5.426;2022-11-04T04:24:12;11.05;;;8.25;;
67889;SDS011;54685;52.082;5.426;2022-11-04T04:27:00;15.13;;;9.95;;
67889;SDS011;54685;52.082;5.426;2022-11-04T04:29:46;17.88;;;10.23;;
67889;SDS011;54685;52.082;5.426;2022-11-04T04:32:15;16.55;;;11.93;;
67889;SDS011;54685;52.082;5.426;2022-11-04T04:34:45;17.35;;;10.95;;
67889;SDS011;54685;52.082;5.426;2022-11-04T04:37:17;14.38;;;11.02;;
67889;SDS011;54685;52.082;5.426;2022-11-04T04:39:52;15.18;;;11.93;;
67889;SDS011;54685;52.082;5.426;2022-11-04T04:42:50;16.05;;;12.93;;
67889;SDS011;54685;52.082;5.426;2022-11-04T04:48:20;20.50;;;12.93;;
67889;SDS011;54685;52.082;5.426;2022-11-04T04:50:48;20.40;;;12.82;;
67889;SDS011;54685;52.082;5.426;2022-11-04T04:53:16;21.83;;;13.63;;
67889;SDS011;54685;52.082;5.426;2022-11-04T04:55:43;19.80;;;12.95;;
67889;SDS011;54685;52.082;5.426;2022-11-04T04:58:09;18.45;;;13.05;;
67889;SDS011;54685;52.082;5.426;2022-11-04T05:00:36;20.05;;;14.75;;
67889;SDS011;54685;52.082;5.426;2022-11-04T05:03:03;19.40;;;13.35;;
67889;SDS011;54685;52.082;5.426;2022-11-04T05:05:29;26.52;;;15.48;;
67889;SDS011;54685;52.082;5.426;2022-11-04T05:08:02;21.55;;;15.48;;
67889;SDS011;54685;52.082;5.426;2022-11-04T05:10:33;20.58;;;13.07;;
67889;SDS011;54685;52.082;5.426;2022-11-04T05:13:00;20.15;;;14.40;;
67889;SDS011;54685;52.082;5.426;2022-11-04T05:15:46;24.88;;;14.45;;
67889;SDS011;54685;52.082;5.426;2022-11-04T05:18:12;19.15;;;13.48;;
67889;SDS011;54685;52.082;5.426;2022-11-04T05:20:39;19.45;;;14.18;;
67889;SDS011;54685;52.082;5.426;2022-11-04T05:23:06;20.98;;;14.13;;
67889;SDS011;54685;52.082;5.426;2022-11-04T05:25:33;17.23;;;12.80;;
67889;SDS011;54685;52.082;5.426;2022-11-04T05:28:00;20.60;;;13.52;;
67889;SDS011;54685;52.082;5.426;2022-11-04T05:30:27;19.17;;;13.15;;
67889;SDS011;54685;52.082;5.426;2022-11-04T05:32:54;20.77;;;13.30;;
67889;SDS011;54685;52.082;5.426;2022-11-04T05:35:28;19.05;;;12.13;;
67889;SDS011;54685;52.082;5.426;2022-11-04T05:37:55;23.98;;;13.77;;
67889;SDS011;54685;52.082;5.426;2022-11-04T05:40:22;19.63;;;12.82;;
67889;SDS011;54685;52.082;5.426;2022-11-04T05:42:49;20.23;;;12.90;;
67889;SDS011;54685;52.082;5.426;2022-11-04T05:45:16;19.55;;;13.77;;
67889;SDS011;54685;52.082;5.426;2022-11-04T05:47:43;20.35;;;12.77;;
67889;SDS011;54685;52.082;5.426;2022-11-04T05:50:10;19.52;;;12.10;;
67889;SDS011;54685;52.082;5.426;2022-11-04T05:52:36;18.65;;;11.32;;
67889;SDS011;54685;52.082;5.426;2022-11-04T05:55:03;19.25;;;11.98;;
67889;SDS011;54685;52.082;5.426;2022-11-04T05:57:33;18.05;;;12.05;;
67889;SDS011;54685;52.082;5.426;2022-11-04T06:00:01;18.33;;;11.55;;
67889;SDS011;54685;52.082;5.426;2022-11-04T06:02:29;16.60;;;11.55;;
67889;SDS011;54685;52.082;5.426;2022-11-04T06:04:56;20.52;;;11.75;;
67889;SDS011;54685;52.082;5.426;2022-11-04T06:07:23;19.60;;;12.00;;
67889;SDS011;54685;52.082;5.426;2022-11-04T06:09:49;17.20;;;11.70;;
67889;SDS011;54685;52.082;5.426;2022-11-04T06:12:16;14.88;;;10.50;;
67889;SDS011;54685;52.082;5.426;2022-11-04T06:14:43;18.98;;;11.05;;
67889;SDS011;54685;52.082;5.426;2022-11-04T06:17:12;12.98;;;10.60;;
67889;SDS011;54685;52.082;5.426;2022-11-04T06:19:45;23.30;;;11.70;;
67889;SDS011;54685;52.082;5.426;2022-11-04T06:22:13;17.63;;;10.35;;
67889;SDS011;54685;52.082;5.426;2022-11-04T06:24:41;17.52;;;9.82;;
67889;SDS011;54685;52.082;5.426;2022-11-04T06:27:08;17.60;;;11.30;;
67889;SDS011;54685;52.082;5.426;2022-11-04T06:29:36;17.88;;;10.38;;
67889;SDS011;54685;52.082;5.426;2022-11-04T06:32:16;14.40;;;9.02;;
67889;SDS011;54685;52.082;5.426;2022-11-04T06:34:43;12.15;;;9.15;;
67889;SDS011;54685;52.082;5.426;2022-11-04T06:37:10;13.88;;;9.10;;
67889;SDS011;54685;52.082;5.426;2022-11-04T06:39:37;21.05;;;10.00;;
67889;SDS011;54685;52.082;5.426;2022-11-04T06:42:04;16.40;;;8.88;;
67889;SDS011;54685;52.082;5.426;2022-11-04T06:44:31;13.70;;;8.05;;
67889;SDS011;54685;52.082;5.426;2022-11-04T06:46:59;15.90;;;8.85;;
67889;SDS011;54685;52.082;5.426;2022-11-04T06:49:27;15.40;;;9.75;;
67889;SDS011;54685;52.082;5.426;2022-11-04T06:51:54;12.95;;;8.82;;
67889;SDS011;54685;52.082;5.426;2022-11-04T06:54:20;13.35;;;9.05;;
67889;SDS011;54685;52.082;5.426;2022-11-04T06:56:47;17.42;;;8.90;;
67889;SDS011;54685;52.082;5.426;2022-11-04T06:59:15;14.52;;;9.35;;
67889;SDS011;54685;52.082;5.426;2022-11-04T07:01:44;17.05;;;8.85;;
67889;SDS011;54685;52.082;5.426;2022-11-04T07:04:12;15.35;;;8.07;;
67889;SDS011;54685;52.082;5.426;2022-11-04T07:06:40;12.93;;;8.65;;
67889;SDS011;54685;52.082;5.426;2022-11-04T07:09:10;13.02;;;8.27;;
67889;SDS011;54685;52.082;5.426;2022-11-04T07:11:40;14.10;;;9.20;;
67889;SDS011;54685;52.082;5.426;2022-11-04T07:14:08;15.30;;;8.85;;
67889;SDS011;54685;52.082;5.426;2022-11-04T07:16:36;13.43;;;8.63;;
67889;SDS011;54685;52.082;5.426;2022-11-04T07:19:03;15.32;;;8.18;;
67889;SDS011;54685;52.082;5.426;2022-11-04T07:21:30;15.30;;;9.40;;
67889;SDS011;54685;52.082;5.426;2022-11-04T07:23:58;15.50;;;7.82;;
67889;SDS011;54685;52.082;5.426;2022-11-04T07:26:26;16.45;;;8.50;;
67889;SDS011;54685;52.082;5.426;2022-11-04T07:28:53;16.38;;;9.48;;
67889;SDS011;54685;52.082;5.426;2022-11-04T07:31:20;17.50;;;8.90;;
67889;SDS011;54685;52.082;5.426;2022-11-04T07:33:47;12.02;;;8.00;;
67889;SDS011;54685;52.082;5.426;2022-11-04T07:36:16;14.60;;;9.23;;
67889;SDS011;54685;52.082;5.426;2022-11-04T07:38:43;14.80;;;8.65;;
67889;SDS011;54685;52.082;5.426;2022-11-04T07:41:11;15.02;;;8.27;;
67889;SDS011;54685;52.082;5.426;2022-11-04T07:43:39;17.38;;;9.32;;
67889;SDS011;54685;52.082;5.426;2022-11-04T07:46:07;14.10;;;7.65;;
67889;SDS011;54685;52.082;5.426;2022-11-04T07:48:36;17.98;;;8.00;;
67889;SDS011;54685;52.082;5.426;2022-11-04T07:51:04;15.50;;;8.05;;
67889;SDS011;54685;52.082;5.426;2022-11-04T07:53:33;17.15;;;7.70;;
67889;SDS011;54685;52.082;5.426;2022-11-04T07:56:04;13.82;;;6.75;;
67889;SDS011;54685;52.082;5.426;2022-11-04T07:58:32;17.77;;;7.47;;
67889;SDS011;54685;52.082;5.426;2022-11-04T08:01:00;12.85;;;6.95;;
67889;SDS011;54685;52.082;5.426;2022-11-04T08:03:29;14.15;;;6.80;;
67889;SDS011;54685;52.082;5.426;2022-11-04T08:05:57;11.38;;;5.78;;
67889;SDS011;54685;52.082;5.426;2022-11-04T08:08:25;11.35;;;5.22;;
67889;SDS011;54685;52.082;5.426;2022-11-04T08:10:53;13.43;;;6.22;;
67889;SDS011;54685;52.082;5.426;2022-11-04T08:13:22;14.05;;;6.28;;
67889;SDS011;54685;52.082;5.426;2022-11-04T08:15:52;11.15;;;5.15;;
67889;SDS011;54685;52.082;5.426;2022-11-04T08:18:19;12.68;;;5.53;;
67889;SDS011;54685;52.082;5.426;2022-11-04T08:20:46;12.88;;;5.47;;
67889;SDS011;54685;52.082;5.426;2022-11-04T08:23:15;10.93;;;6.63;;
67889;SDS011;54685;52.082;5.426;2022-11-04T08:25:42;8.68;;;5.55;;
67889;SDS011;54685;52.082;5.426;2022-11-04T08:28:09;11.75;;;6.35;;
67889;SDS011;54685;52.082;5.426;2022-11-04T08:30:53;14.45;;;6.07;;
67889;SDS011;54685;52.082;5.426;2022-11-04T08:33:31;10.20;;;5.85;;
67889;SDS011;54685;52.082;5.426;2022-11-04T08:36:00;20.02;;;7.20;;
67889;SDS011;54685;52.082;5.426;2022-11-04T08:38:31;14.57;;;6.35;;
67889;SDS011;54685;52.082;5.426;2022-11-04T08:41:00;11.35;;;5.25;;
67889;SDS011;54685;52.082;5.426;2022-11-04T08:43:31;10.63;;;5.90;;
67889;SDS011;54685;52.082;5.426;2022-11-04T08:45:59;14.55;;;6.15;;
67889;SDS011;54685;52.082;5.426;2022-11-04T08:48:26;9.65;;;5.50;;
67889;SDS011;54685;52.082;5.426;2022-11-04T08:50:54;10.18;;;5.60;;
67889;SDS011;54685;52.082;5.426;2022-11-04T08:53:24;18.60;;;6.55;;
67889;SDS011;54685;52.082;5.426;2022-11-04T08:55:51;12.25;;;6.40;;
67889;SDS011;54685;52.082;5.426;2022-11-04T08:58:19;15.48;;;6.47;;
67889;SDS011;54685;52.082;5.426;2022-11-04T09:00:47;14.40;;;6.18;;
67889;SDS011;54685;52.082;5.426;2022-11-04T09:03:14;14.68;;;6.65;;
67889;SDS011;54685;52.082;5.426;2022-11-04T09:05:41;18.13;;;7.45;;
67889;SDS011;54685;52.082;5.426;2022-11-04T09:08:12;11.88;;;7.00;;
67889;SDS011;54685;52.082;5.426;2022-11-04T09:10:43;13.98;;;6.53;;
67889;SDS011;54685;52.082;5.426;2022-11-04T09:13:12;13.57;;;6.43;;
67889;SDS011;54685;52.082;5.426;2022-11-04T09:15:41;17.25;;;7.53;;
67889;SDS011;54685;52.082;5.426;2022-11-04T09:18:08;12.25;;;6.65;;
67889;SDS011;54685;52.082;5.426;2022-11-04T09:20:35;12.55;;;6.45;;
67889;SDS011;54685;52.082;5.426;2022-11-04T09:23:07;13.07;;;6.03;;
67889;SDS011;54685;52.082;5.426;2022-11-04T09:25:35;15.77;;;6.45;;
67889;SDS011;54685;52.082;5.426;2022-11-04T09:28:02;19.70;;;6.63;;
67889;SDS011;54685;52.082;5.426;2022-11-04T09:30:29;13.07;;;5.55;;
67889;SDS011;54685;52.082;5.426;2022-11-04T09:32:57;10.73;;;6.10;;
67889;SDS011;54685;52.082;5.426;2022-11-04T09:35:24;14.23;;;5.43;;
67889;SDS011;54685;52.082;5.426;2022-11-04T09:37:52;12.88;;;5.88;;
67889;SDS011;54685;52.082;5.426;2022-11-04T09:40:20;10.30;;;5.22;;
67889;SDS011;54685;52.082;5.426;2022-11-04T09:45:27;13.43;;;6.78;;
67889;SDS011;54685;52.082;5.426;2022-11-04T09:47:57;12.43;;;6.03;;
67889;SDS011;54685;52.082;5.426;2022-11-04T09:50:46;12.98;;;5.53;;
67889;SDS011;54685;52.082;5.426;2022-11-04T09:53:20;15.25;;;6.15;;
67889;SDS011;54685;52.082;5.426;2022-11-04T09:55:55;10.68;;;5.85;;
67889;SDS011;54685;52.082;5.426;2022-11-04T09:58:25;9.75;;;5.30;;
67889;SDS011;54685;52.082;5.426;2022-11-04T10:00:57;16.10;;;6.50;;
67889;SDS011;54685;52.082;5.426;2022-11-04T10:09:42;15.70;;;8.38;;
67889;SDS011;54685;52.082;5.426;2022-11-04T10:18:10;18.25;;;12.25;;
67889;SDS011;54685;52.082;5.426;2022-11-04T10:26:25;22.92;;;14.07;;
67889;SDS011;54685;52.082;5.426;2022-11-04T10:29:03;18.65;;;12.43;;
67889;SDS011;54685;52.082;5.426;2022-11-04T10:31:34;23.08;;;14.18;;
67889;SDS011;54685;52.082;5.426;2022-11-04T10:34:07;19.70;;;12.90;;
67889;SDS011;54685;52.082;5.426;2022-11-04T10:36:40;20.42;;;11.95;;
67889;SDS011;54685;52.082;5.426;2022-11-04T10:39:13;22.02;;;12.57;;
67889;SDS011;54685;52.082;5.426;2022-11-04T10:44:22;18.52;;;13.02;;
67889;SDS011;54685;52.082;5.426;2022-11-04T10:47:06;18.63;;;12.55;;
67889;SDS011;54685;52.082;5.426;2022-11-04T10:50:02;19.48;;;13.43;;
67889;SDS011;54685;52.082;5.426;2022-11-04T10:52:50;22.63;;;12.95;;
67889;SDS011;54685;52.082;5.426;2022-11-04T10:55:25;19.33;;;12.60;;
67889;SDS011;54685;52.082;5.426;2022-11-04T10:58:07;19.15;;;13.65;;
67889;SDS011;54685;52.082;5.426;2022-11-04T11:00:45;24.30;;;13.60;;
67889;SDS011;54685;52.082;5.426;2022-11-04T11:03:31;16.88;;;11.73;;
67889;SDS011;54685;52.082;5.426;2022-11-04T11:08:40;17.33;;;12.85;;
67889;SDS011;54685;52.082;5.426;2022-11-04T11:11:09;20.63;;;13.95;;
67889;SDS011;54685;52.082;5.426;2022-11-04T11:13:42;18.30;;;14.75;;
67889;SDS011;54685;52.082;5.426;2022-11-04T11:16:17;19.70;;;14.00;;
67889;SDS011;54685;52.082;5.426;2022-11-04T11:19:06;19.83;;;13.32;;
67889;SDS011;54685;52.082;5.426;2022-11-04T11:21:43;19.30;;;12.48;;
67889;SDS011;54685;52.082;5.426;2022-11-04T11:24:15;18.23;;;12.18;;
67889;SDS011;54685;52.082;5.426;2022-11-04T11:26:45;21.80;;;12.05;;
67889;SDS011;54685;52.082;5.426;2022-11-04T11:29:19;18.58;;;11.88;;
67889;SDS011;54685;52.082;5.426;2022-11-04T11:31:49;13.68;;;11.18;;
67889;SDS011;54685;52.082;5.426;2022-11-04T11:34:25;19.98;;;11.65;;
67889;SDS011;54685;52.082;5.426;2022-11-04T11:36:56;12.10;;;10.20;;
67889;SDS011;54685;52.082;5.426;2022-11-04T11:39:30;17.23;;;10.68;;
67889;SDS011;54685;52.082;5.426;2022-11-04T11:41:59;20.13;;;10.55;;
67889;SDS011;54685;52.082;5.426;2022-11-04T11:44:44;13.20;;;8.73;;
67889;SDS011;54685;52.082;5.426;2022-11-04T11:52:39;16.35;;;7.43;;
67889;SDS011;54685;52.082;5.426;2022-11-04T11:55:18;18.85;;;8.85;;
67889;SDS011;54685;52.082;5.426;2022-11-04T12:03:50;12.77;;;7.53;;
67889;SDS011;54685;52.082;5.426;2022-11-04T12:20:35;16.55;;;7.20;;
67889;SDS011;54685;52.082;5.426;2022-11-04T12:23:29;13.82;;;7.25;;
67889;SDS011;54685;52.082;5.426;2022-11-04T12:26:12;10.70;;;6.20;;
67889;SDS011;54685;52.082;5.426;2022-11-04T12:32:23;13.10;;;6.47;;
67889;SDS011;54685;52.082;5.426;2022-11-04T12:49:26;10.10;;;6.30;;
67889;SDS011;54685;52.082;5.426;2022-11-04T12:52:12;11.95;;;5.88;;
67889;SDS011;54685;52.082;5.426;2022-11-04T12:58:09;14.70;;;5.72;;
67889;SDS011;54685;52.082;5.426;2022-11-04T13:00:42;10.90;;;4.30;;
67889;SDS011;54685;52.082;5.426;2022-11-04T13:03:16;8.45;;;4.20;;
67889;SDS011;54685;52.082;5.426;2022-11-04T13:05:49;10.02;;;4.30;;
67889;SDS011;54685;52.082;5.426;2022-11-04T13:08:30;8.60;;;3.92;;
67889;SDS011;54685;52.082;5.426;2022-11-04T13:11:09;9.38;;;4.78;;
67889;SDS011;54685;52.082;5.426;2022-11-04T13:13:53;8.20;;;4.35;;
67889;SDS011;54685;52.082;5.426;2022-11-04T13:16:33;16.42;;;5.90;;
67889;SDS011;54685;52.082;5.426;2022-11-04T13:19:04;22.60;;;7.40;;
67889;SDS011;54685;52.082;5.426;2022-11-04T13:21:51;22.35;;;8.23;;
67889;SDS011;54685;52.082;5.426;2022-11-04T13:24:21;13.35;;;4.53;;
67889;SDS011;54685;52.082;5.426;2022-11-04T13:26:57;5.60;;;3.10;;
67889;SDS011;54685;52.082;5.426;2022-11-04T13:29:31;8.27;;;3.65;;
67889;SDS011;54685;52.082;5.426;2022-11-04T13:32:15;8.15;;;3.25;;
67889;SDS011;54685;52.082;5.426;2022-11-04T13:40:09;10.10;;;4.78;;
67889;SDS011;54685;52.082;5.426;2022-11-04T13:45:11;15.05;;;3.97;;
67889;SDS011;54685;52.082;5.426;2022-11-04T13:47:44;7.70;;;3.45;;
67889;SDS011;54685;52.082;5.426;2022-11-04T13:50:27;8.77;;;3.30;;
67889;SDS011;54685;52.082;5.426;2022-11-04T13:53:02;7.18;;;2.00;;
67889;SDS011;54685;52.082;5.426;2022-11-04T13:55:30;3.22;;;1.45;;
67889;SDS011;54685;52.082;5.426;2022-11-04T13:57:58;1.88;;;0.93;;
67889;SDS011;54685;52.082;5.426;2022-11-04T14:00:27;2.55;;;0.80;;
67889;SDS011;54685;52.082;5.426;2022-11-04T14:02:56;3.92;;;0.52;;
67889;SDS011;54685;52.082;5.426;2022-11-04T14:16:11;3.92;;;0.80;;
67889;SDS011;54685;52.082;5.426;2022-11-04T14:18:53;5.10;;;0.65;;
67889;SDS011;54685;52.082;5.426;2022-11-04T14:21:21;2.97;;;0.50;;
67889;SDS011;54685;52.082;5.426;2022-11-04T14:23:51;0.50;;;0.20;;
67889;SDS011;54685;52.082;5.426;2022-11-04T14:26:21;2.00;;;0.40;;
67889;SDS011;54685;52.082;5.426;2022-11-04T14:29:00;1.85;;;0.40;;
67889;SDS011;54685;52.082;5.426;2022-11-04T14:31:40;1.33;;;0.40;;
67889;SDS011;54685;52.082;5.426;2022-11-04T14:36:59;1.90;;;0.40;;
67889;SDS011;54685;52.082;5.426;2022-11-04T14:39:44;2.33;;;0.57;;
67889;SDS011;54685;52.082;5.426;2022-11-04T14:42:39;2.58;;;0.70;;
67889;SDS011;54685;52.082;5.426;2022-11-04T14:45:16;2.33;;;0.80;;
67889;SDS011;54685;52.082;5.426;2022-11-04T14:47:48;4.32;;;1.17;;
67889;SDS011;54685;52.082;5.426;2022-11-04T14:50:23;1.40;;;1.30;;
67889;SDS011;54685;52.082;5.426;2022-11-04T14:52:53;4.65;;;2.58;;
67889;SDS011;54685;52.082;5.426;2022-11-04T14:55:24;2.78;;;1.30;;
67889;SDS011;54685;52.082;5.426;2022-11-04T14:57:53;3.58;;;1.10;;
67889;SDS011;54685;52.082;5.426;2022-11-04T15:00:33;1.90;;;1.13;;
67889;SDS011;54685;52.082;5.426;2022-11-04T15:03:11;2.95;;;1.08;;
67889;SDS011;54685;52.082;5.426;2022-11-04T15:06:07;3.65;;;1.05;;
67889;SDS011;54685;52.082;5.426;2022-11-04T15:14:12;2.03;;;1.63;;
67889;SDS011;54685;52.082;5.426;2022-11-04T15:16:51;4.50;;;2.20;;
67889;SDS011;54685;52.082;5.426;2022-11-04T15:19:31;5.53;;;2.30;;
67889;SDS011;54685;52.082;5.426;2022-11-04T15:22:00;5.95;;;2.10;;
67889;SDS011;54685;52.082;5.426;2022-11-04T15:24:29;7.93;;;3.08;;
67889;SDS011;54685;52.082;5.426;2022-11-04T15:26:57;3.35;;;2.00;;
67889;SDS011;54685;52.082;5.426;2022-11-04T15:29:31;6.00;;;2.22;;
67889;SDS011;54685;52.082;5.426;2022-11-04T15:32:02;3.60;;;2.08;;
67889;SDS011;54685;52.082;5.426;2022-11-04T15:37:01;5.35;;;1.90;;
67889;SDS011;54685;52.082;5.426;2022-11-04T15:42:04;4.65;;;2.17;;
67889;SDS011;54685;52.082;5.426;2022-11-04T15:44:52;6.68;;;2.20;;
67889;SDS011;54685;52.082;5.426;2022-11-04T15:47:22;4.25;;;2.03;;
67889;SDS011;54685;52.082;5.426;2022-11-04T15:49:51;5.28;;;2.20;;
67889;SDS011;54685;52.082;5.426;2022-11-04T15:52:23;7.22;;;3.55;;
67889;SDS011;54685;52.082;5.426;2022-11-04T15:54:52;5.85;;;4.30;;
67889;SDS011;54685;52.082;5.426;2022-11-04T15:57:28;9.70;;;5.13;;
67889;SDS011;54685;52.082;5.426;2022-11-04T16:02:56;6.18;;;3.35;;
67889;SDS011;54685;52.082;5.426;2022-11-04T16:05:26;9.27;;;4.07;;
67889;SDS011;54685;52.082;5.426;2022-11-04T16:07:55;7.43;;;2.90;;
67889;SDS011;54685;52.082;5.426;2022-11-04T16:10:43;5.93;;;2.30;;
67889;SDS011;54685;52.082;5.426;2022-11-04T16:16:02;6.07;;;3.47;;
67889;SDS011;54685;52.082;5.426;2022-11-04T16:18:38;10.80;;;3.90;;
67889;SDS011;54685;52.082;5.426;2022-11-04T16:21:09;9.77;;;4.13;;
67889;SDS011;54685;52.082;5.426;2022-11-04T16:23:47;6.95;;;4.20;;
67889;SDS011;54685;52.082;5.426;2022-11-04T16:26:37;7.90;;;4.15;;
67889;SDS011;54685;52.082;5.426;2022-11-04T16:29:06;8.75;;;4.70;;
67889;SDS011;54685;52.082;5.426;2022-11-04T16:31:35;9.02;;;3.97;;
67889;SDS011;54685;52.082;5.426;2022-11-04T16:34:02;7.40;;;3.55;;
67889;SDS011;54685;52.082;5.426;2022-11-04T16:36:35;6.75;;;3.60;;
67889;SDS011;54685;52.082;5.426;2022-11-04T16:39:03;10.10;;;4.25;;
67889;SDS011;54685;52.082;5.426;2022-11-04T16:41:35;7.83;;;3.33;;
67889;SDS011;54685;52.082;5.426;2022-11-04T16:44:04;6.22;;;3.30;;
67889;SDS011;54685;52.082;5.426;2022-11-04T16:46:39;8.85;;;3.35;;
67889;SDS011;54685;52.082;5.426;2022-11-04T16:49:07;6.38;;;2.63;;
67889;SDS011;54685;52.082;5.426;2022-11-04T16:51:36;7.50;;;2.60;;
67889;SDS011;54685;52.082;5.426;2022-11-04T16:54:03;7.63;;;2.97;;
67889;SDS011;54685;52.082;5.426;2022-11-04T16:56:30;8.00;;;3.13;;
67889;SDS011;54685;52.082;5.426;2022-11-04T16:58:58;7.88;;;3.30;;
67889;SDS011;54685;52.082;5.426;2022-11-04T17:01:25;13.63;;;4.40;;
67889;SDS011;54685;52.082;5.426;2022-11-04T17:03:52;9.25;;;4.30;;
67889;SDS011;54685;52.082;5.426;2022-11-04T17:06:19;11.43;;;4.68;;
67889;SDS011;54685;52.082;5.426;2022-11-04T17:08:46;12.50;;;4.25;;
67889;SDS011;54685;52.082;5.426;2022-11-04T17:11:12;7.20;;;3.40;;
67889;SDS011;54685;52.082;5.426;2022-11-04T17:13:39;6.35;;;2.97;;
67889;SDS011;54685;52.082;5.426;2022-11-04T17:16:08;4.13;;;2.83;;
67889;SDS011;54685;52.082;5.426;2022-11-04T17:18:38;3.90;;;2.83;;
67889;SDS011;54685;52.082;5.426;2022-11-04T17:21:05;8.82;;;3.22;;
67889;SDS011;54685;52.082;5.426;2022-11-04T17:23:34;5.70;;;2.80;;
67889;SDS011;54685;52.082;5.426;2022-11-04T17:26:03;7.80;;;3.10;;
67889;SDS011;54685;52.082;5.426;2022-11-04T17:28:41;6.55;;;2.88;;
67889;SDS011;54685;52.082;5.426;2022-11-04T17:31:10;5.97;;;2.67;;
67889;SDS011;54685;52.082;5.426;2022-11-04T17:33:44;5.07;;;2.72;;